<?xml version="1.0" encoding="UTF-8" standalone="no" ?>
<gpx xmlns="http://www.topografix.com/GPX/1/1" xmlns:xsi="http://www.w3.org/2001/XMLSchema-instance" xsi:schemaLocation="http://www.topografix.com/GPX/1/1 http://www.topografix.com/GPX/1/1/gpx.xsd" version="1.1" creator="VisuGPX - https://www.visugpx.com">
  <metadata>
    <name>sejour gov alsace</name>
  </metadata>
  <wpt lat="48.06424" lon="7.02221">
    <ele>1132</ele>
    <name><![CDATA[Col de la Schlucht]]></name>
    <desc><![CDATA[Parking]]></desc>
    <cmt><![CDATA[Parking]]></cmt>
  </wpt>
  <wpt lat="48.04158" lon="7.29947">
    <ele>223</ele>
    <name><![CDATA[Eguisheim]]></name>
  </wpt>
  <wpt lat="48.1793" lon="7.31018">
    <ele>275</ele>
    <name><![CDATA[Hunawihr]]></name>
  </wpt>
  <wpt lat="48.13923" lon="7.25933">
    <ele>251</ele>
    <name><![CDATA[Kaysersberg]]></name>
  </wpt>
  <wpt lat="48.14587" lon="7.25086">
    <ele>290</ele>
    <name><![CDATA[Kaysersberg-CCAS]]></name>
    <desc><![CDATA[3 Rue Rene le Guen]]></desc>
    <cmt><![CDATA[3 Rue Rene le Guen]]></cmt>
  </wpt>
  <wpt lat="48.14668" lon="7.25549">
    <ele>261</ele>
    <name><![CDATA[Kaysersberg-Salle de Sport]]></name>
  </wpt>
  <wpt lat="48.11261" lon="7.10019">
    <ele>958</ele>
    <name><![CDATA[Lac Noir]]></name>
  </wpt>
  <wpt lat="48.17" lon="7.12576">
    <ele>667</ele>
    <name><![CDATA[Le Bonhomme]]></name>
  </wpt>
  <wpt lat="48.05292" lon="6.9482">
    <ele>918</ele>
    <name><![CDATA[Lispach]]></name>
  </wpt>
  <wpt lat="48.16758" lon="7.29424">
    <ele>321</ele>
    <name><![CDATA[Riquewihr]]></name>
  </wpt>
  <wpt lat="48.23274" lon="7.36606">
    <ele>254</ele>
    <name><![CDATA[St-Hippolyte]]></name>
  </wpt>
  <wpt lat="48.22694" lon="7.30439">
    <ele>466</ele>
    <name><![CDATA[Thannenkirch]]></name>
  </wpt>
  <trk>
    <name><![CDATA[09-Lac Noir-Lac Blanc-Lac du Forlet (11,5 km & 450 m)]]></name>
    <trkseg>
      <trkpt lat="48.11261" lon="7.10019">
        <ele>958</ele>
        <time>2021-04-21T17:09:07Z</time>
      </trkpt>
      <trkpt lat="48.11273" lon="7.10037">
        <ele>964</ele>
        <time>2021-04-21T17:09:12Z</time>
      </trkpt>
      <trkpt lat="48.11286" lon="7.1009">
        <ele>974</ele>
        <time>2017-02-15T23:03:59Z</time>
      </trkpt>
      <trkpt lat="48.11313" lon="7.10135">
        <ele>979</ele>
        <time>2021-04-21T17:09:22Z</time>
      </trkpt>
      <trkpt lat="48.11342" lon="7.1017">
        <ele>985</ele>
        <time>2021-04-21T17:09:27Z</time>
      </trkpt>
      <trkpt lat="48.11369" lon="7.10193">
        <ele>990</ele>
        <time>2021-04-21T17:09:32Z</time>
      </trkpt>
      <trkpt lat="48.11396" lon="7.10209">
        <ele>995</ele>
        <time>2017-02-15T23:07:59Z</time>
      </trkpt>
      <trkpt lat="48.11456" lon="7.10196">
        <ele>1009</ele>
        <time>2021-04-21T17:09:42Z</time>
      </trkpt>
      <trkpt lat="48.11521" lon="7.10166">
        <ele>1019</ele>
        <time>2021-04-21T17:09:47Z</time>
      </trkpt>
      <trkpt lat="48.11543" lon="7.10166">
        <ele>1020</ele>
        <time>2021-04-21T17:09:52Z</time>
      </trkpt>
      <trkpt lat="48.11554" lon="7.10159">
        <ele>1022</ele>
        <time>2021-04-21T17:09:57Z</time>
      </trkpt>
      <trkpt lat="48.11568" lon="7.10146">
        <ele>1024</ele>
        <time>2021-04-21T17:10:02Z</time>
      </trkpt>
      <trkpt lat="48.11596" lon="7.10145">
        <ele>1026</ele>
        <time>2021-04-21T17:10:07Z</time>
      </trkpt>
      <trkpt lat="48.11607" lon="7.1015">
        <ele>1026</ele>
        <time>2017-02-15T23:13:59Z</time>
      </trkpt>
      <trkpt lat="48.11628" lon="7.10176">
        <ele>1025</ele>
        <time>2021-04-21T17:10:17Z</time>
      </trkpt>
      <trkpt lat="48.11661" lon="7.10204">
        <ele>1025</ele>
        <time>2021-04-21T17:10:22Z</time>
      </trkpt>
      <trkpt lat="48.11681" lon="7.10231">
        <ele>1027</ele>
        <time>2021-04-21T17:10:27Z</time>
      </trkpt>
      <trkpt lat="48.117" lon="7.10246">
        <ele>1029</ele>
        <time>2021-04-21T17:10:32Z</time>
      </trkpt>
      <trkpt lat="48.1172" lon="7.10303">
        <ele>1023</ele>
        <time>2021-04-21T17:10:37Z</time>
      </trkpt>
      <trkpt lat="48.11791" lon="7.10454">
        <ele>1020</ele>
        <time>2017-02-15T23:19:59Z</time>
      </trkpt>
      <trkpt lat="48.11828" lon="7.10514">
        <ele>1022</ele>
        <time>2021-04-21T17:10:47Z</time>
      </trkpt>
      <trkpt lat="48.11867" lon="7.10564">
        <ele>1025</ele>
        <time>2021-04-21T17:10:52Z</time>
      </trkpt>
      <trkpt lat="48.11875" lon="7.10557">
        <ele>1029</ele>
        <time>2021-04-21T17:10:57Z</time>
      </trkpt>
      <trkpt lat="48.11901" lon="7.10592">
        <ele>1030</ele>
        <time>2021-04-21T17:11:02Z</time>
      </trkpt>
      <trkpt lat="48.11925" lon="7.10613">
        <ele>1032</ele>
        <time>2021-04-21T17:11:07Z</time>
      </trkpt>
      <trkpt lat="48.11958" lon="7.10627">
        <ele>1036</ele>
        <time>2021-04-21T17:11:12Z</time>
      </trkpt>
      <trkpt lat="48.12002" lon="7.10654">
        <ele>1038</ele>
        <time>2021-04-21T17:11:17Z</time>
      </trkpt>
      <trkpt lat="48.12036" lon="7.10686">
        <ele>1028</ele>
        <time>2017-02-15T23:25:59Z</time>
      </trkpt>
      <trkpt lat="48.12061" lon="7.10692">
        <ele>1026</ele>
        <time>2021-04-21T17:11:27Z</time>
      </trkpt>
      <trkpt lat="48.12084" lon="7.10679">
        <ele>1028</ele>
        <time>2021-04-21T17:11:32Z</time>
      </trkpt>
      <trkpt lat="48.12113" lon="7.10653">
        <ele>1028</ele>
        <time>2021-04-21T17:11:37Z</time>
      </trkpt>
      <trkpt lat="48.12124" lon="7.10637">
        <ele>1028</ele>
        <time>2021-04-21T17:11:42Z</time>
      </trkpt>
      <trkpt lat="48.12134" lon="7.10614">
        <ele>1030</ele>
        <time>2017-02-15T23:29:59Z</time>
      </trkpt>
      <trkpt lat="48.12143" lon="7.10562">
        <ele>1033</ele>
        <time>2021-04-21T17:11:52Z</time>
      </trkpt>
      <trkpt lat="48.1214" lon="7.10509">
        <ele>1036</ele>
        <time>2021-04-21T17:11:57Z</time>
      </trkpt>
      <trkpt lat="48.12103" lon="7.10354">
        <ele>1039</ele>
        <time>2021-04-21T17:12:02Z</time>
      </trkpt>
      <trkpt lat="48.12075" lon="7.10251">
        <ele>1039</ele>
        <time>2017-02-15T23:37:59Z</time>
      </trkpt>
      <trkpt lat="48.12071" lon="7.10224">
        <ele>1044</ele>
        <time>2021-04-21T17:12:12Z</time>
      </trkpt>
      <trkpt lat="48.12077" lon="7.10199">
        <ele>1044</ele>
        <time>2021-04-21T17:12:17Z</time>
      </trkpt>
      <trkpt lat="48.12087" lon="7.10178">
        <ele>1043</ele>
        <time>2021-04-21T17:12:22Z</time>
      </trkpt>
      <trkpt lat="48.12115" lon="7.10142">
        <ele>1040</ele>
        <time>2021-04-21T17:12:27Z</time>
      </trkpt>
      <trkpt lat="48.12128" lon="7.10108">
        <ele>1040</ele>
        <time>2021-04-21T17:12:32Z</time>
      </trkpt>
      <trkpt lat="48.12128" lon="7.1005">
        <ele>1045</ele>
        <time>2021-04-21T17:12:37Z</time>
      </trkpt>
      <trkpt lat="48.12124" lon="7.0999">
        <ele>1051</ele>
        <time>2021-04-21T17:12:42Z</time>
      </trkpt>
      <trkpt lat="48.12119" lon="7.0995">
        <ele>1056</ele>
        <time>2021-04-21T17:12:47Z</time>
      </trkpt>
      <trkpt lat="48.12121" lon="7.09921">
        <ele>1056</ele>
        <time>2017-02-15T23:45:59Z</time>
      </trkpt>
      <trkpt lat="48.1214" lon="7.09888">
        <ele>1053</ele>
        <time>2021-04-21T17:12:57Z</time>
      </trkpt>
      <trkpt lat="48.12144" lon="7.09859">
        <ele>1058</ele>
        <time>2021-04-21T17:13:02Z</time>
      </trkpt>
      <trkpt lat="48.12179" lon="7.09804">
        <ele>1062</ele>
        <time>2021-04-21T17:13:07Z</time>
      </trkpt>
      <trkpt lat="48.12199" lon="7.0979">
        <ele>1065</ele>
        <time>2021-04-21T17:13:12Z</time>
      </trkpt>
      <trkpt lat="48.1222" lon="7.09794">
        <ele>1062</ele>
        <time>2017-02-15T23:51:59Z</time>
      </trkpt>
      <trkpt lat="48.12243" lon="7.09809">
        <ele>1055</ele>
        <time>2021-04-21T17:13:22Z</time>
      </trkpt>
      <trkpt lat="48.12264" lon="7.09848">
        <ele>1044</ele>
        <time>2021-04-21T17:13:27Z</time>
      </trkpt>
      <trkpt lat="48.12293" lon="7.09948">
        <ele>1029</ele>
        <time>2017-02-15T23:57:59Z</time>
      </trkpt>
      <trkpt lat="48.12319" lon="7.09943">
        <ele>1030</ele>
        <time>2021-04-21T17:13:37Z</time>
      </trkpt>
      <trkpt lat="48.12325" lon="7.09924">
        <ele>1032</ele>
        <time>2021-04-21T17:13:42Z</time>
      </trkpt>
      <trkpt lat="48.12321" lon="7.09899">
        <ele>1036</ele>
        <time>2021-04-21T17:13:47Z</time>
      </trkpt>
      <trkpt lat="48.12317" lon="7.09856">
        <ele>1044</ele>
        <time>2021-04-21T17:13:52Z</time>
      </trkpt>
      <trkpt lat="48.12323" lon="7.09812">
        <ele>1056</ele>
        <time>2021-04-21T17:13:57Z</time>
      </trkpt>
      <trkpt lat="48.12328" lon="7.09791">
        <ele>1062</ele>
        <time>2021-04-21T17:14:02Z</time>
      </trkpt>
      <trkpt lat="48.12328" lon="7.09748">
        <ele>1076</ele>
        <time>2017-02-16T00:03:59Z</time>
      </trkpt>
      <trkpt lat="48.12348" lon="7.09757">
        <ele>1071</ele>
        <time>2021-04-21T17:14:12Z</time>
      </trkpt>
      <trkpt lat="48.1238" lon="7.09773">
        <ele>1062</ele>
        <time>2021-04-21T17:14:17Z</time>
      </trkpt>
      <trkpt lat="48.12403" lon="7.09758">
        <ele>1064</ele>
        <time>2021-04-21T17:14:22Z</time>
      </trkpt>
      <trkpt lat="48.12432" lon="7.09754">
        <ele>1062</ele>
        <time>2021-04-21T17:14:27Z</time>
      </trkpt>
      <trkpt lat="48.12447" lon="7.09738">
        <ele>1064</ele>
        <time>2021-04-21T17:14:32Z</time>
      </trkpt>
      <trkpt lat="48.12466" lon="7.09728">
        <ele>1063</ele>
        <time>2017-02-16T00:11:59Z</time>
      </trkpt>
      <trkpt lat="48.12476" lon="7.097">
        <ele>1065</ele>
        <time>2021-04-21T17:14:42Z</time>
      </trkpt>
      <trkpt lat="48.12484" lon="7.09618">
        <ele>1064</ele>
        <time>2017-02-16T00:15:59Z</time>
      </trkpt>
      <trkpt lat="48.12513" lon="7.09666">
        <ele>1062</ele>
        <time>2017-02-16T00:17:59Z</time>
      </trkpt>
      <trkpt lat="48.12564" lon="7.09581">
        <ele>1066</ele>
        <time>2021-04-21T17:14:57Z</time>
      </trkpt>
      <trkpt lat="48.1262" lon="7.09505">
        <ele>1071</ele>
        <time>2021-04-21T17:15:02Z</time>
      </trkpt>
      <trkpt lat="48.12678" lon="7.09454">
        <ele>1076</ele>
        <time>2021-04-21T17:15:07Z</time>
      </trkpt>
      <trkpt lat="48.12716" lon="7.09391">
        <ele>1075</ele>
        <time>2021-04-21T17:15:12Z</time>
      </trkpt>
      <trkpt lat="48.1275" lon="7.09341">
        <ele>1074</ele>
        <time>2021-04-21T17:15:17Z</time>
      </trkpt>
      <trkpt lat="48.12784" lon="7.09289">
        <ele>1073</ele>
        <time>2021-04-21T17:15:22Z</time>
      </trkpt>
      <trkpt lat="48.12846" lon="7.09171">
        <ele>1073</ele>
        <time>2021-04-21T17:15:27Z</time>
      </trkpt>
      <trkpt lat="48.12866" lon="7.09152">
        <ele>1073</ele>
        <time>2021-04-21T17:15:32Z</time>
      </trkpt>
      <trkpt lat="48.12887" lon="7.09144">
        <ele>1075</ele>
        <time>2017-02-16T00:31:59Z</time>
      </trkpt>
      <trkpt lat="48.1294" lon="7.09127">
        <ele>1078</ele>
        <time>2021-04-21T17:15:42Z</time>
      </trkpt>
      <trkpt lat="48.13021" lon="7.09115">
        <ele>1084</ele>
        <time>2021-04-21T17:15:47Z</time>
      </trkpt>
      <trkpt lat="48.13086" lon="7.09061">
        <ele>1078</ele>
        <time>2017-02-16T00:37:59Z</time>
      </trkpt>
      <trkpt lat="48.13102" lon="7.09003">
        <ele>1071</ele>
        <time>2021-04-21T17:15:57Z</time>
      </trkpt>
      <trkpt lat="48.13115" lon="7.08934">
        <ele>1068</ele>
        <time>2021-04-21T17:16:02Z</time>
      </trkpt>
      <trkpt lat="48.13118" lon="7.08904">
        <ele>1069</ele>
        <time>2017-02-16T00:43:59Z</time>
      </trkpt>
      <trkpt lat="48.13126" lon="7.08889">
        <ele>1074</ele>
        <time>2021-04-21T17:16:12Z</time>
      </trkpt>
      <trkpt lat="48.13162" lon="7.08858">
        <ele>1089</ele>
        <time>2021-04-21T17:16:17Z</time>
      </trkpt>
      <trkpt lat="48.13177" lon="7.08854">
        <ele>1096</ele>
        <time>2021-04-21T17:16:22Z</time>
      </trkpt>
      <trkpt lat="48.1322" lon="7.08875">
        <ele>1107</ele>
        <time>2021-04-21T17:16:27Z</time>
      </trkpt>
      <trkpt lat="48.13304" lon="7.08917">
        <ele>1120</ele>
        <time>2021-04-21T17:16:32Z</time>
      </trkpt>
      <trkpt lat="48.1329" lon="7.08892">
        <ele>1124</ele>
        <time>2021-04-21T17:16:37Z</time>
      </trkpt>
      <trkpt lat="48.13269" lon="7.08846">
        <ele>1131</ele>
        <time>2021-04-21T17:16:42Z</time>
      </trkpt>
      <trkpt lat="48.13242" lon="7.08772">
        <ele>1142</ele>
        <time>2021-04-21T17:16:47Z</time>
      </trkpt>
      <trkpt lat="48.1327" lon="7.08781">
        <ele>1148</ele>
        <time>2021-04-21T17:16:52Z</time>
      </trkpt>
      <trkpt lat="48.13289" lon="7.08815">
        <ele>1145</ele>
        <time>2021-04-21T17:16:57Z</time>
      </trkpt>
      <trkpt lat="48.13296" lon="7.0878">
        <ele>1155</ele>
        <time>2021-04-21T17:17:02Z</time>
      </trkpt>
      <trkpt lat="48.13294" lon="7.08733">
        <ele>1165</ele>
        <time>2021-04-21T17:17:07Z</time>
      </trkpt>
      <trkpt lat="48.13276" lon="7.08686">
        <ele>1173</ele>
        <time>2017-02-16T00:49:59Z</time>
      </trkpt>
      <trkpt lat="48.13272" lon="7.08642">
        <ele>1183</ele>
        <time>2021-04-21T17:17:17Z</time>
      </trkpt>
      <trkpt lat="48.13294" lon="7.08659">
        <ele>1181</ele>
        <time>2017-02-16T00:57:59Z</time>
      </trkpt>
      <trkpt lat="48.13282" lon="7.08608">
        <ele>1189</ele>
        <time>2021-04-21T17:17:27Z</time>
      </trkpt>
      <trkpt lat="48.13243" lon="7.08565">
        <ele>1197</ele>
        <time>2021-04-21T17:17:32Z</time>
      </trkpt>
      <trkpt lat="48.13193" lon="7.08531">
        <ele>1206</ele>
        <time>2021-04-21T17:17:37Z</time>
      </trkpt>
      <trkpt lat="48.13142" lon="7.08515">
        <ele>1214</ele>
        <time>2017-02-16T01:07:59Z</time>
      </trkpt>
      <trkpt lat="48.1306" lon="7.08509">
        <ele>1217</ele>
        <time>2021-04-21T17:17:47Z</time>
      </trkpt>
      <trkpt lat="48.13005" lon="7.08455">
        <ele>1228</ele>
        <time>2021-04-21T17:17:52Z</time>
      </trkpt>
      <trkpt lat="48.12933" lon="7.08418">
        <ele>1234</ele>
        <time>2017-02-16T01:21:59Z</time>
      </trkpt>
      <trkpt lat="48.12916" lon="7.084">
        <ele>1234</ele>
        <time>2021-04-21T17:18:02Z</time>
      </trkpt>
      <trkpt lat="48.12893" lon="7.08411">
        <ele>1235</ele>
        <time>2021-04-21T17:18:07Z</time>
      </trkpt>
      <trkpt lat="48.12836" lon="7.0842">
        <ele>1236</ele>
        <time>2021-04-21T17:18:12Z</time>
      </trkpt>
      <trkpt lat="48.12794" lon="7.08423">
        <ele>1236</ele>
        <time>2021-04-21T17:18:17Z</time>
      </trkpt>
      <trkpt lat="48.12757" lon="7.08415">
        <ele>1237</ele>
        <time>2021-04-21T17:18:22Z</time>
      </trkpt>
      <trkpt lat="48.12736" lon="7.08426">
        <ele>1236</ele>
        <time>2021-04-21T17:18:27Z</time>
      </trkpt>
      <trkpt lat="48.12716" lon="7.08422">
        <ele>1238</ele>
        <time>2021-04-21T17:18:32Z</time>
      </trkpt>
      <trkpt lat="48.12666" lon="7.08433">
        <ele>1241</ele>
        <time>2021-04-21T17:18:37Z</time>
      </trkpt>
      <trkpt lat="48.12627" lon="7.0843">
        <ele>1245</ele>
        <time>2021-04-21T17:18:42Z</time>
      </trkpt>
      <trkpt lat="48.12608" lon="7.08424">
        <ele>1247</ele>
        <time>2021-04-21T17:18:47Z</time>
      </trkpt>
      <trkpt lat="48.12581" lon="7.08432">
        <ele>1248</ele>
        <time>2021-04-21T17:18:52Z</time>
      </trkpt>
      <trkpt lat="48.12555" lon="7.08411">
        <ele>1251</ele>
        <time>2021-04-21T17:18:57Z</time>
      </trkpt>
      <trkpt lat="48.12534" lon="7.08408">
        <ele>1251</ele>
        <time>2021-04-21T17:19:02Z</time>
      </trkpt>
      <trkpt lat="48.12484" lon="7.08411">
        <ele>1255</ele>
        <time>2021-04-21T17:19:07Z</time>
      </trkpt>
      <trkpt lat="48.12458" lon="7.08427">
        <ele>1258</ele>
        <time>2021-04-21T17:19:12Z</time>
      </trkpt>
      <trkpt lat="48.12421" lon="7.08418">
        <ele>1264</ele>
        <time>2021-04-21T17:19:17Z</time>
      </trkpt>
      <trkpt lat="48.12376" lon="7.084">
        <ele>1269</ele>
        <time>2021-04-21T17:19:22Z</time>
      </trkpt>
      <trkpt lat="48.1235" lon="7.08399">
        <ele>1272</ele>
        <time>2021-04-21T17:19:27Z</time>
      </trkpt>
      <trkpt lat="48.12308" lon="7.08397">
        <ele>1275</ele>
        <time>2021-04-21T17:19:32Z</time>
      </trkpt>
      <trkpt lat="48.12264" lon="7.08381">
        <ele>1278</ele>
        <time>2021-04-21T17:19:37Z</time>
      </trkpt>
      <trkpt lat="48.12226" lon="7.08365">
        <ele>1282</ele>
        <time>2021-04-21T17:19:42Z</time>
      </trkpt>
      <trkpt lat="48.12191" lon="7.0836">
        <ele>1286</ele>
        <time>2017-02-16T01:31:59Z</time>
      </trkpt>
      <trkpt lat="48.12144" lon="7.08338">
        <ele>1289</ele>
        <time>2021-04-21T17:19:52Z</time>
      </trkpt>
      <trkpt lat="48.12104" lon="7.0831">
        <ele>1291</ele>
        <time>2021-04-21T17:19:57Z</time>
      </trkpt>
      <trkpt lat="48.12067" lon="7.08295">
        <ele>1293</ele>
        <time>2021-04-21T17:20:02Z</time>
      </trkpt>
      <trkpt lat="48.12007" lon="7.08254">
        <ele>1296</ele>
        <time>2021-04-21T17:20:07Z</time>
      </trkpt>
      <trkpt lat="48.11994" lon="7.08236">
        <ele>1296</ele>
        <time>2021-04-21T17:20:12Z</time>
      </trkpt>
      <trkpt lat="48.11977" lon="7.08232">
        <ele>1296</ele>
        <time>2021-04-21T17:20:17Z</time>
      </trkpt>
      <trkpt lat="48.11943" lon="7.08215">
        <ele>1297</ele>
        <time>2021-04-21T17:20:22Z</time>
      </trkpt>
      <trkpt lat="48.11909" lon="7.08206">
        <ele>1298</ele>
        <time>2021-04-21T17:20:27Z</time>
      </trkpt>
      <trkpt lat="48.11859" lon="7.08172">
        <ele>1297</ele>
        <time>2021-04-21T17:20:32Z</time>
      </trkpt>
      <trkpt lat="48.1179" lon="7.08156">
        <ele>1298</ele>
        <time>2021-04-21T17:20:37Z</time>
      </trkpt>
      <trkpt lat="48.11742" lon="7.08128">
        <ele>1297</ele>
        <time>2021-04-21T17:20:42Z</time>
      </trkpt>
      <trkpt lat="48.11691" lon="7.08093">
        <ele>1295</ele>
        <time>2021-04-21T17:20:47Z</time>
      </trkpt>
      <trkpt lat="48.11647" lon="7.0806">
        <ele>1293</ele>
        <time>2021-04-21T17:20:52Z</time>
      </trkpt>
      <trkpt lat="48.1163" lon="7.08035">
        <ele>1293</ele>
        <time>2021-04-21T17:20:57Z</time>
      </trkpt>
      <trkpt lat="48.11608" lon="7.08028">
        <ele>1293</ele>
        <time>2021-04-21T17:21:02Z</time>
      </trkpt>
      <trkpt lat="48.11589" lon="7.08013">
        <ele>1293</ele>
        <time>2021-04-21T17:21:07Z</time>
      </trkpt>
      <trkpt lat="48.11532" lon="7.08001">
        <ele>1295</ele>
        <time>2021-04-21T17:21:12Z</time>
      </trkpt>
      <trkpt lat="48.11489" lon="7.07976">
        <ele>1296</ele>
        <time>2021-04-21T17:21:17Z</time>
      </trkpt>
      <trkpt lat="48.11445" lon="7.07956">
        <ele>1298</ele>
        <time>2021-04-21T17:21:22Z</time>
      </trkpt>
      <trkpt lat="48.11401" lon="7.07942">
        <ele>1300</ele>
        <time>2021-04-21T17:21:27Z</time>
      </trkpt>
      <trkpt lat="48.11368" lon="7.07922">
        <ele>1302</ele>
        <time>2021-04-21T17:21:32Z</time>
      </trkpt>
      <trkpt lat="48.11287" lon="7.0788">
        <ele>1299</ele>
        <time>2021-04-21T17:21:37Z</time>
      </trkpt>
      <trkpt lat="48.11244" lon="7.07856">
        <ele>1296</ele>
        <time>2021-04-21T17:21:42Z</time>
      </trkpt>
      <trkpt lat="48.11202" lon="7.07839">
        <ele>1293</ele>
        <time>2021-04-21T17:21:47Z</time>
      </trkpt>
      <trkpt lat="48.1114" lon="7.07808">
        <ele>1290</ele>
        <time>2021-04-21T17:21:52Z</time>
      </trkpt>
      <trkpt lat="48.11074" lon="7.07787">
        <ele>1289</ele>
        <time>2021-04-21T17:21:57Z</time>
      </trkpt>
      <trkpt lat="48.1098" lon="7.07735">
        <ele>1291</ele>
        <time>2021-04-21T17:22:02Z</time>
      </trkpt>
      <trkpt lat="48.10919" lon="7.07708">
        <ele>1294</ele>
        <time>2021-04-21T17:22:07Z</time>
      </trkpt>
      <trkpt lat="48.10892" lon="7.07705">
        <ele>1295</ele>
        <time>2021-04-21T17:22:12Z</time>
      </trkpt>
      <trkpt lat="48.10866" lon="7.07671">
        <ele>1297</ele>
        <time>2017-02-16T01:43:59Z</time>
      </trkpt>
      <trkpt lat="48.10855" lon="7.07684">
        <ele>1297</ele>
        <time>2021-04-21T17:22:22Z</time>
      </trkpt>
      <trkpt lat="48.10874" lon="7.0777">
        <ele>1293</ele>
        <time>2021-04-21T17:22:27Z</time>
      </trkpt>
      <trkpt lat="48.10899" lon="7.07867">
        <ele>1289</ele>
        <time>2017-02-16T01:47:59Z</time>
      </trkpt>
      <trkpt lat="48.10894" lon="7.07912">
        <ele>1286</ele>
        <time>2021-04-21T17:22:37Z</time>
      </trkpt>
      <trkpt lat="48.10859" lon="7.0802">
        <ele>1276</ele>
        <time>2021-04-21T17:22:42Z</time>
      </trkpt>
      <trkpt lat="48.10838" lon="7.08084">
        <ele>1271</ele>
        <time>2021-04-21T17:22:47Z</time>
      </trkpt>
      <trkpt lat="48.10823" lon="7.08125">
        <ele>1270</ele>
        <time>2021-04-21T17:22:52Z</time>
      </trkpt>
      <trkpt lat="48.10805" lon="7.08157">
        <ele>1269</ele>
        <time>2017-02-16T01:51:59Z</time>
      </trkpt>
      <trkpt lat="48.10745" lon="7.08108">
        <ele>1261</ele>
        <time>2017-02-16T01:55:59Z</time>
      </trkpt>
      <trkpt lat="48.10722" lon="7.08074">
        <ele>1255</ele>
        <time>2021-04-21T17:23:07Z</time>
      </trkpt>
      <trkpt lat="48.10686" lon="7.08061">
        <ele>1247</ele>
        <time>2021-04-21T17:23:12Z</time>
      </trkpt>
      <trkpt lat="48.10662" lon="7.08067">
        <ele>1243</ele>
        <time>2021-04-21T17:23:17Z</time>
      </trkpt>
      <trkpt lat="48.10639" lon="7.08064">
        <ele>1236</ele>
        <time>2021-04-21T17:23:22Z</time>
      </trkpt>
      <trkpt lat="48.10623" lon="7.08051">
        <ele>1229</ele>
        <time>2021-04-21T17:23:27Z</time>
      </trkpt>
      <trkpt lat="48.10589" lon="7.08041">
        <ele>1216</ele>
        <time>2021-04-21T17:23:32Z</time>
      </trkpt>
      <trkpt lat="48.10542" lon="7.08052">
        <ele>1201</ele>
        <time>2017-02-16T02:09:59Z</time>
      </trkpt>
      <trkpt lat="48.10551" lon="7.07997">
        <ele>1193</ele>
        <time>2021-04-21T17:23:42Z</time>
      </trkpt>
      <trkpt lat="48.10564" lon="7.0794">
        <ele>1188</ele>
        <time>2021-04-21T17:23:47Z</time>
      </trkpt>
      <trkpt lat="48.10537" lon="7.07949">
        <ele>1178</ele>
        <time>2017-02-16T02:11:59Z</time>
      </trkpt>
      <trkpt lat="48.10531" lon="7.07934">
        <ele>1172</ele>
        <time>2021-04-21T17:23:57Z</time>
      </trkpt>
      <trkpt lat="48.10505" lon="7.07957">
        <ele>1166</ele>
        <time>2021-04-21T17:24:02Z</time>
      </trkpt>
      <trkpt lat="48.10504" lon="7.07933">
        <ele>1160</ele>
        <time>2021-04-21T17:24:07Z</time>
      </trkpt>
      <trkpt lat="48.10509" lon="7.07889">
        <ele>1155</ele>
        <time>2021-04-21T17:24:12Z</time>
      </trkpt>
      <trkpt lat="48.10475" lon="7.07904">
        <ele>1142</ele>
        <time>2021-04-21T17:24:17Z</time>
      </trkpt>
      <trkpt lat="48.10459" lon="7.07899">
        <ele>1135</ele>
        <time>2021-04-21T17:24:22Z</time>
      </trkpt>
      <trkpt lat="48.10443" lon="7.07907">
        <ele>1131</ele>
        <time>2021-04-21T17:24:27Z</time>
      </trkpt>
      <trkpt lat="48.10442" lon="7.07864">
        <ele>1123</ele>
        <time>2021-04-21T17:24:32Z</time>
      </trkpt>
      <trkpt lat="48.10443" lon="7.07815">
        <ele>1117</ele>
        <time>2021-04-21T17:24:37Z</time>
      </trkpt>
      <trkpt lat="48.10453" lon="7.07771">
        <ele>1119</ele>
        <time>2021-04-21T17:24:42Z</time>
      </trkpt>
      <trkpt lat="48.10445" lon="7.07728">
        <ele>1114</ele>
        <time>2021-04-21T17:24:47Z</time>
      </trkpt>
      <trkpt lat="48.10428" lon="7.07681">
        <ele>1105</ele>
        <time>2017-02-16T02:19:59Z</time>
      </trkpt>
      <trkpt lat="48.10422" lon="7.07606">
        <ele>1105</ele>
        <time>2021-04-21T17:24:57Z</time>
      </trkpt>
      <trkpt lat="48.10419" lon="7.07548">
        <ele>1103</ele>
        <time>2021-04-21T17:25:02Z</time>
      </trkpt>
      <trkpt lat="48.10426" lon="7.07512">
        <ele>1105</ele>
        <time>2021-04-21T17:25:07Z</time>
      </trkpt>
      <trkpt lat="48.10408" lon="7.07494">
        <ele>1098</ele>
        <time>2021-04-21T17:25:12Z</time>
      </trkpt>
      <trkpt lat="48.10379" lon="7.07489">
        <ele>1094</ele>
        <time>2017-02-16T02:33:59Z</time>
      </trkpt>
      <trkpt lat="48.10338" lon="7.07489">
        <ele>1088</ele>
        <time>2021-04-21T17:25:22Z</time>
      </trkpt>
      <trkpt lat="48.10317" lon="7.07462">
        <ele>1088</ele>
        <time>2021-04-21T17:25:27Z</time>
      </trkpt>
      <trkpt lat="48.10251" lon="7.07461">
        <ele>1082</ele>
        <time>2021-04-21T17:25:32Z</time>
      </trkpt>
      <trkpt lat="48.10224" lon="7.0746">
        <ele>1084</ele>
        <time>2021-04-21T17:25:37Z</time>
      </trkpt>
      <trkpt lat="48.10209" lon="7.07487">
        <ele>1084</ele>
        <time>2017-02-16T02:41:59Z</time>
      </trkpt>
      <trkpt lat="48.10213" lon="7.07546">
        <ele>1079</ele>
        <time>2021-04-21T17:25:47Z</time>
      </trkpt>
      <trkpt lat="48.10208" lon="7.07587">
        <ele>1078</ele>
        <time>2021-04-21T17:25:52Z</time>
      </trkpt>
      <trkpt lat="48.10214" lon="7.07631">
        <ele>1077</ele>
        <time>2021-04-21T17:25:57Z</time>
      </trkpt>
      <trkpt lat="48.10212" lon="7.07686">
        <ele>1077</ele>
        <time>2021-04-21T17:26:02Z</time>
      </trkpt>
      <trkpt lat="48.10207" lon="7.07765">
        <ele>1076</ele>
        <time>2021-04-21T17:26:07Z</time>
      </trkpt>
      <trkpt lat="48.10183" lon="7.0784">
        <ele>1073</ele>
        <time>2017-02-16T02:53:59Z</time>
      </trkpt>
      <trkpt lat="48.10214" lon="7.0787">
        <ele>1067</ele>
        <time>2021-04-21T17:26:17Z</time>
      </trkpt>
      <trkpt lat="48.10244" lon="7.07881">
        <ele>1066</ele>
        <time>2021-04-21T17:26:22Z</time>
      </trkpt>
      <trkpt lat="48.10269" lon="7.07917">
        <ele>1070</ele>
        <time>2017-02-16T02:55:59Z</time>
      </trkpt>
      <trkpt lat="48.10275" lon="7.07935">
        <ele>1074</ele>
        <time>2021-04-21T17:26:32Z</time>
      </trkpt>
      <trkpt lat="48.10269" lon="7.07975">
        <ele>1076</ele>
        <time>2021-04-21T17:26:37Z</time>
      </trkpt>
      <trkpt lat="48.10264" lon="7.08011">
        <ele>1078</ele>
        <time>2021-04-21T17:26:42Z</time>
      </trkpt>
      <trkpt lat="48.10278" lon="7.08034">
        <ele>1086</ele>
        <time>2021-04-21T17:26:47Z</time>
      </trkpt>
      <trkpt lat="48.10277" lon="7.08103">
        <ele>1095</ele>
        <time>2021-04-21T17:26:52Z</time>
      </trkpt>
      <trkpt lat="48.10268" lon="7.08168">
        <ele>1101</ele>
        <time>2017-02-16T03:01:59Z</time>
      </trkpt>
      <trkpt lat="48.1026" lon="7.08196">
        <ele>1100</ele>
        <time>2021-04-21T17:27:02Z</time>
      </trkpt>
      <trkpt lat="48.1026" lon="7.08326">
        <ele>1102</ele>
        <time>2021-04-21T17:27:07Z</time>
      </trkpt>
      <trkpt lat="48.10266" lon="7.08388">
        <ele>1104</ele>
        <time>2021-04-21T17:27:12Z</time>
      </trkpt>
      <trkpt lat="48.10263" lon="7.08415">
        <ele>1102</ele>
        <time>2017-02-16T03:07:59Z</time>
      </trkpt>
      <trkpt lat="48.1026" lon="7.08488">
        <ele>1106</ele>
        <time>2021-04-21T17:27:22Z</time>
      </trkpt>
      <trkpt lat="48.10249" lon="7.08556">
        <ele>1106</ele>
        <time>2021-04-21T17:27:27Z</time>
      </trkpt>
      <trkpt lat="48.10252" lon="7.08672">
        <ele>1111</ele>
        <time>2021-04-21T17:27:32Z</time>
      </trkpt>
      <trkpt lat="48.10243" lon="7.08715">
        <ele>1110</ele>
        <time>2021-04-21T17:27:37Z</time>
      </trkpt>
      <trkpt lat="48.10243" lon="7.08778">
        <ele>1113</ele>
        <time>2021-04-21T17:27:42Z</time>
      </trkpt>
      <trkpt lat="48.10237" lon="7.08836">
        <ele>1115</ele>
        <time>2021-04-21T17:27:47Z</time>
      </trkpt>
      <trkpt lat="48.10239" lon="7.08863">
        <ele>1116</ele>
        <time>2021-04-21T17:27:52Z</time>
      </trkpt>
      <trkpt lat="48.10233" lon="7.08906">
        <ele>1114</ele>
        <time>2021-04-21T17:27:57Z</time>
      </trkpt>
      <trkpt lat="48.1023" lon="7.08943">
        <ele>1114</ele>
        <time>2021-04-21T17:28:02Z</time>
      </trkpt>
      <trkpt lat="48.10221" lon="7.09003">
        <ele>1113</ele>
        <time>2021-04-21T17:28:07Z</time>
      </trkpt>
      <trkpt lat="48.10215" lon="7.09037">
        <ele>1112</ele>
        <time>2017-02-16T03:17:59Z</time>
      </trkpt>
      <trkpt lat="48.10215" lon="7.09097">
        <ele>1112</ele>
        <time>2021-04-21T17:28:17Z</time>
      </trkpt>
      <trkpt lat="48.1022" lon="7.09168">
        <ele>1114</ele>
        <time>2021-04-21T17:28:22Z</time>
      </trkpt>
      <trkpt lat="48.10239" lon="7.09219">
        <ele>1115</ele>
        <time>2021-04-21T17:28:27Z</time>
      </trkpt>
      <trkpt lat="48.1027" lon="7.09272">
        <ele>1116</ele>
        <time>2017-02-16T03:21:59Z</time>
      </trkpt>
      <trkpt lat="48.10311" lon="7.09334">
        <ele>1118</ele>
        <time>2021-04-21T17:28:37Z</time>
      </trkpt>
      <trkpt lat="48.1036" lon="7.09387">
        <ele>1123</ele>
        <time>2021-04-21T17:28:42Z</time>
      </trkpt>
      <trkpt lat="48.10376" lon="7.09372">
        <ele>1126</ele>
        <time>2021-04-21T17:28:47Z</time>
      </trkpt>
      <trkpt lat="48.1042" lon="7.09364">
        <ele>1132</ele>
        <time>2017-02-16T03:25:59Z</time>
      </trkpt>
      <trkpt lat="48.10445" lon="7.09375">
        <ele>1130</ele>
        <time>2021-04-21T17:28:57Z</time>
      </trkpt>
      <trkpt lat="48.10524" lon="7.09393">
        <ele>1127</ele>
        <time>2021-04-21T17:29:02Z</time>
      </trkpt>
      <trkpt lat="48.10596" lon="7.09432">
        <ele>1119</ele>
        <time>2021-04-21T17:29:07Z</time>
      </trkpt>
      <trkpt lat="48.1067" lon="7.09441">
        <ele>1111</ele>
        <time>2021-04-21T17:29:12Z</time>
      </trkpt>
      <trkpt lat="48.10752" lon="7.09475">
        <ele>1100</ele>
        <time>2021-04-21T17:29:17Z</time>
      </trkpt>
      <trkpt lat="48.1082" lon="7.09492">
        <ele>1090</ele>
        <time>2021-04-21T17:29:22Z</time>
      </trkpt>
      <trkpt lat="48.10856" lon="7.09508">
        <ele>1081</ele>
        <time>2021-04-21T17:29:27Z</time>
      </trkpt>
      <trkpt lat="48.10879" lon="7.09504">
        <ele>1077</ele>
        <time>2021-04-21T17:29:32Z</time>
      </trkpt>
      <trkpt lat="48.10913" lon="7.09476">
        <ele>1076</ele>
        <time>2017-02-16T03:43:59Z</time>
      </trkpt>
      <trkpt lat="48.10969" lon="7.09427">
        <ele>1068</ele>
        <time>2017-02-16T03:53:59Z</time>
      </trkpt>
      <trkpt lat="48.1094" lon="7.095">
        <ele>1061</ele>
        <time>2021-04-21T17:29:47Z</time>
      </trkpt>
      <trkpt lat="48.10919" lon="7.0957">
        <ele>1052</ele>
        <time>2017-02-16T03:57:59Z</time>
      </trkpt>
      <trkpt lat="48.10928" lon="7.096">
        <ele>1044</ele>
        <time>2021-04-21T17:29:57Z</time>
      </trkpt>
      <trkpt lat="48.10954" lon="7.096">
        <ele>1035</ele>
        <time>2021-04-21T17:30:02Z</time>
      </trkpt>
      <trkpt lat="48.1095" lon="7.09633">
        <ele>1034</ele>
        <time>2021-04-21T17:30:07Z</time>
      </trkpt>
      <trkpt lat="48.10975" lon="7.09628">
        <ele>1027</ele>
        <time>2021-04-21T17:30:12Z</time>
      </trkpt>
      <trkpt lat="48.10987" lon="7.09656">
        <ele>1023</ele>
        <time>2021-04-21T17:30:17Z</time>
      </trkpt>
      <trkpt lat="48.11001" lon="7.09696">
        <ele>1019</ele>
        <time>2021-04-21T17:30:22Z</time>
      </trkpt>
      <trkpt lat="48.11025" lon="7.097">
        <ele>1008</ele>
        <time>2021-04-21T17:30:27Z</time>
      </trkpt>
      <trkpt lat="48.11035" lon="7.09716">
        <ele>1003</ele>
        <time>2021-04-21T17:30:32Z</time>
      </trkpt>
      <trkpt lat="48.11039" lon="7.09731">
        <ele>1002</ele>
        <time>2021-04-21T17:30:37Z</time>
      </trkpt>
      <trkpt lat="48.11058" lon="7.09787">
        <ele>996</ele>
        <time>2021-04-21T17:30:42Z</time>
      </trkpt>
      <trkpt lat="48.1109" lon="7.09847">
        <ele>989</ele>
        <time>2021-04-21T17:30:47Z</time>
      </trkpt>
      <trkpt lat="48.11151" lon="7.09939">
        <ele>977</ele>
        <time>2021-04-21T17:30:52Z</time>
      </trkpt>
      <trkpt lat="48.11181" lon="7.0998">
        <ele>974</ele>
        <time>2021-04-21T17:30:57Z</time>
      </trkpt>
      <trkpt lat="48.11223" lon="7.1002">
        <ele>965</ele>
        <time>2021-04-21T17:31:02Z</time>
      </trkpt>
      <trkpt lat="48.11219" lon="7.10002">
        <ele>965</ele>
        <time>2021-04-21T17:31:07Z</time>
      </trkpt>
      <trkpt lat="48.11251" lon="7.09995">
        <ele>953</ele>
        <time>2021-04-21T17:31:12Z</time>
      </trkpt>
      <trkpt lat="48.11259" lon="7.10017">
        <ele>958</ele>
        <time>2017-02-16T04:09:59Z</time>
      </trkpt>
    </trkseg>
  </trk>
</gpx>